Time;durP1;ratioP1;P1;durP2;ratioP2;P2;SDS_P1;SDS_P2;PMS_P1;PMS_P2;Temp;Humidity;BMP_temperature;BMP_pressure;BME280_temperature;BME280_humidity;BME280_pressure;Samples;Min_cycle;Max_cycle;Signal;HPM_P1;HPM_P2
2021/09/19 00:00:19;;;;;;;19.50;18.00;;;;;;;10.54;100.00;98685.16;2042243;29;20673;-79
2021/09/19 00:01:20;;;;;;;19.63;18.10;;;;;;;10.53;100.00;98683.59;2050377;28;20202;-79
2021/09/19 00:02:24;;;;;;;20.60;18.77;;;;;;;10.53;100.00;98688.94;2050234;29;20259;-79
2021/09/19 00:03:25;;;;;;;20.35;18.73;;;;;;;10.52;100.00;98686.56;2050753;28;20194;-79
2021/09/19 00:04:26;;;;;;;20.05;18.45;;;;;;;10.53;100.00;98688.94;2050150;29;20206;-80
2021/09/19 00:05:28;;;;;;;20.60;18.90;;;;;;;10.54;100.00;98695.06;2042230;29;20677;-79
2021/09/19 00:06:28;;;;;;;22.60;19.10;;;;;;;10.51;100.00;98693.75;2050321;28;20198;-80
2021/09/19 00:07:30;;;;;;;20.70;19.00;;;;;;;10.53;100.00;98691.59;2050323;29;20673;-76
2021/09/19 00:08:32;;;;;;;20.55;18.85;;;;;;;10.56;100.00;98684.84;2050135;29;20301;-76
2021/09/19 00:09:35;;;;;;;20.95;19.15;;;;;;;10.61;100.00;98688.19;2050045;29;20692;-76
2021/09/19 00:10:37;;;;;;;20.60;18.80;;;;;;;10.61;100.00;98698.88;2050586;28;20198;-76
2021/09/19 00:11:38;;;;;;;21.13;19.33;;;;;;;10.67;100.00;98686.97;2058785;28;20197;-76
2021/09/19 00:12:40;;;;;;;22.13;20.17;;;;;;;10.68;100.00;98693.88;2058844;28;20200;-76
2021/09/19 00:13:41;;;;;;;21.63;19.70;;;;;;;10.62;100.00;98689.78;2058825;28;20192;-76
2021/09/19 00:14:43;;;;;;;21.60;19.80;;;;;;;10.61;100.00;98685.53;2050159;29;20282;-76
2021/09/19 00:15:43;;;;;;;21.52;19.63;;;;;;;10.81;100.00;98697.56;2050341;28;20269;-76
2021/09/19 00:16:45;;;;;;;22.90;20.70;;;;;;;10.72;100.00;98688.72;2058798;28;20214;-76
2021/09/19 00:17:47;;;;;;;23.23;21.20;;;;;;;10.62;100.00;98688.97;2058736;28;20201;-76
2021/09/19 00:18:48;;;;;;;22.77;20.77;;;;;;;10.54;100.00;98687.84;2049745;29;20210;-76
2021/09/19 00:19:50;;;;;;;21.93;20.00;;;;;;;10.51;100.00;98693.75;2050063;29;20230;-76
2021/09/19 00:20:50;;;;;;;21.90;19.92;;;;;;;10.60;100.00;98691.16;2050163;29;20668;-77
2021/09/19 00:21:52;;;;;;;22.53;20.53;;;;;;;10.62;100.00;98689.78;2042101;29;20542;-76
2021/09/19 00:22:56;;;;;;;23.80;21.63;;;;;;;10.55;100.00;98684.06;2050150;28;20194;-76
2021/09/19 00:23:57;;;;;;;22.45;20.38;;;;;;;10.54;100.00;98687.06;2049976;29;20302;-76
2021/09/19 00:25:00;;;;;;;23.02;20.90;;;;;;;10.50;100.00;98686.84;2050166;28;20239;-77
2021/09/19 00:26:01;;;;;;;22.52;20.63;;;;;;;10.47;100.00;98687.47;2050037;29;20238;-76
2021/09/19 00:27:05;;;;;;;22.23;20.33;;;;;;;10.45;100.00;98684.31;2050398;28;20580;-76
2021/09/19 00:28:07;;;;;;;21.63;19.83;;;;;;;10.47;100.00;98680.25;2058637;28;20198;-76
2021/09/19 00:29:08;;;;;;;22.08;20.08;;;;;;;10.45;100.00;98687.00;2058609;28;20225;-76
2021/09/19 00:30:11;;;;;;;21.98;20.02;;;;;;;10.43;100.00;98686.50;2049897;29;20233;-77
2021/09/19 00:31:13;;;;;;;22.58;20.65;;;;;;;10.36;100.00;98684.25;2041764;29;20211;-77
2021/09/19 00:32:13;;;;;;;21.75;19.95;;;;;;;10.39;100.00;98678.31;2042094;29;20203;-76
2021/09/19 00:33:15;;;;;;;22.70;20.80;;;;;;;10.38;100.00;98689.28;2049987;29;20202;-77
2021/09/19 00:34:16;;;;;;;21.70;19.90;;;;;;;10.40;100.00;98684.44;2042126;29;20379;-77
2021/09/19 00:35:17;;;;;;;22.10;20.20;;;;;;;10.38;100.00;98684.75;2042005;29;20234;-76
2021/09/19 00:36:18;;;;;;;22.92;20.83;;;;;;;10.34;100.00;98683.78;2049906;28;20202;-76
2021/09/19 00:37:20;;;;;;;23.20;21.10;;;;;;;10.31;100.00;98683.59;2049848;29;20241;-76
2021/09/19 00:38:23;;;;;;;23.77;21.58;;;;;;;10.26;100.00;98687.19;2050271;28;20671;-76
2021/09/19 00:39:26;;;;;;;23.20;20.85;;;;;;;10.36;100.00;98686.94;2049404;29;20202;-78
2021/09/19 00:40:28;;;;;;;22.73;20.83;;;;;;;10.31;100.00;98686.25;2049977;28;20222;-79
2021/09/19 00:41:30;;;;;;;24.00;21.80;;;;;;;10.29;100.00;98683.13;2058522;28;20197;-78
2021/09/19 00:42:30;;;;;;;23.45;21.35;;;;;;;10.32;100.00;98685.16;2058521;28;20673;-79
2021/09/19 00:43:32;;;;;;;24.10;21.90;;;;;;;10.32;100.00;98680.63;2049914;29;20237;-78
2021/09/19 00:44:33;;;;;;;24.15;21.77;;;;;;;10.28;100.00;98684.22;2049984;28;20748;-78
2021/09/19 00:46:00;;;;;;;24.58;22.38;;;;;;;10.18;100.00;98669.22;2058823;28;20617;-79
2021/09/19 00:47:01;;;;;;;25.10;22.80;;;;;;;10.18;100.00;98675.31;2058632;28;20186;-78
2021/09/19 00:48:02;;;;;;;25.33;22.93;;;;;;;10.16;100.00;98672.19;2058692;28;20186;-80
2021/09/19 00:49:04;;;;;;;25.20;22.77;;;;;;;10.17;100.00;98679.09;2049856;29;20210;-79
2021/09/19 00:50:08;;;;;;;29.27;23.75;;;;;;;10.13;100.00;98682.66;2049956;28;20751;-78
2021/09/19 00:51:08;;;;;;;26.42;23.88;;;;;;;10.13;100.00;98688.75;2058699;28;20198;-77
2021/09/19 00:52:10;;;;;;;27.40;24.80;;;;;;;10.13;100.00;98683.44;2058619;28;20204;-78
2021/09/19 00:53:11;;;;;;;27.38;24.77;;;;;;;10.06;100.00;98688.38;2049540;29;20199;-78
2021/09/19 00:54:14;;;;;;;27.67;24.98;;;;;;;10.04;100.00;98684.47;2049853;29;20198;-78
2021/09/19 00:55:16;;;;;;;27.75;24.85;;;;;;;9.98;100.00;98677.66;2041849;29;20284;-77
2021/09/19 00:56:24;;;;;;;29.00;26.05;;;;;;;9.96;100.00;98677.19;2042069;29;20207;-77
2021/09/19 00:57:25;;;;;;;28.63;25.65;;;;;;;9.93;100.00;98672.44;2050816;28;20345;-78
2021/09/19 00:58:27;;;;;;;28.35;25.55;;;;;;;9.94;100.00;98684.69;2058503;28;20758;-78
2021/09/19 00:59:29;;;;;;;28.17;25.23;;;;;;;10.04;100.00;98684.47;2058612;28;20236;-78
2021/09/19 01:00:32;;;;;;;28.63;25.73;;;;;;;10.01;100.00;98680.53;2050075;28;20206;-78
2021/09/19 01:01:33;;;;;;;28.92;25.92;;;;;;;9.93;100.00;98677.78;2049851;29;20198;-78
2021/09/19 01:02:35;;;;;;;29.00;25.90;;;;;;;9.91;100.00;98686.88;2059023;28;20280;-78
2021/09/19 01:03:37;;;;;;;28.48;25.58;;;;;;;9.91;100.00;98675.44;2058874;28;20232;-79
2021/09/19 01:04:38;;;;;;;33.42;26.42;;;;;;;9.89;100.00;98677.56;2049325;29;20369;-79
2021/09/19 01:05:41;;;;;;;29.67;26.65;;;;;;;9.87;100.00;98679.75;2041746;29;20207;-79
2021/09/19 01:06:42;;;;;;;29.00;26.10;;;;;;;9.86;100.00;98678.19;2041976;29;20227;-80
2021/09/19 01:07:47;;;;;;;31.05;27.58;;;;;;;9.86;100.00;98680.84;2041833;29;20678;-79
2021/09/19 01:08:48;;;;;;;30.23;27.00;;;;;;;9.86;100.00;98678.19;2050238;28;20221;-79
2021/09/19 01:09:51;;;;;;;29.92;26.70;;;;;;;9.88;100.00;98676.00;2049543;29;20245;-79
2021/09/19 01:10:52;;;;;;;32.13;27.65;;;;;;;9.85;100.00;98676.63;2049943;28;20195;-79
2021/09/19 01:11:56;;;;;;;30.75;27.63;;;;;;;9.86;100.00;98681.63;2058277;28;20248;-79
2021/09/19 01:12:58;;;;;;;30.85;27.55;;;;;;;9.86;100.00;98688.84;2049560;29;20704;-79
2021/09/19 01:14:00;;;;;;;30.27;27.20;;;;;;;9.81;100.00;98676.41;2049741;28;20688;-79
2021/09/19 01:15:03;;;;;;;29.30;26.20;;;;;;;9.79;100.00;98678.59;2058374;28;20244;-79
2021/09/19 01:16:05;;;;;;;29.65;26.58;;;;;;;9.79;100.00;98667.16;2058328;28;20217;-79
2021/09/19 01:17:07;;;;;;;30.17;26.92;;;;;;;9.76;100.00;98681.09;2058252;28;20213;-79
2021/09/19 01:18:08;;;;;;;29.70;26.58;;;;;;;9.79;100.00;98685.81;2049674;29;20305;-79
2021/09/19 01:19:13;;;;;;;29.67;26.63;;;;;;;9.80;100.00;98687.38;2050121;28;20189;-75
2021/09/19 01:20:15;;;;;;;28.95;26.08;;;;;;;9.80;100.00;98688.16;2058272;28;20228;-75
2021/09/19 01:21:17;;;;;;;29.70;26.60;;;;;;;9.84;100.00;98683.03;2049594;29;20202;-75
2021/09/19 01:22:19;;;;;;;29.02;26.08;;;;;;;9.80;100.00;98684.72;2049598;29;20232;-75
2021/09/19 01:23:21;;;;;;;28.67;25.77;;;;;;;9.79;100.00;98683.13;2041684;29;20633;-75
2021/09/19 01:24:26;;;;;;;29.67;26.58;;;;;;;9.79;100.00;98685.81;2049778;28;20195;-75
2021/09/19 01:25:27;;;;;;;30.20;26.90;;;;;;;9.87;100.00;98685.09;2058227;28;20198;-75
2021/09/19 01:26:30;;;;;;;29.98;26.67;;;;;;;9.91;100.00;98688.75;2058249;28;20221;-75
2021/09/19 01:27:32;;;;;;;30.15;27.15;;;;;;;9.83;100.00;98689.47;2058400;28;20208;-75
2021/09/19 01:28:34;;;;;;;30.13;26.92;;;;;;;9.84;100.00;98689.16;2049537;29;20202;-75
2021/09/19 01:29:36;;;;;;;28.67;25.70;;;;;;;9.85;100.00;98689.94;2049718;28;20213;-75
2021/09/19 01:30:38;;;;;;;28.73;25.73;;;;;;;9.83;100.00;98684.91;2049384;29;20321;-75
2021/09/19 01:31:39;;;;;;;28.30;24.80;;;;;;;9.84;100.00;98680.38;2049502;29;20269;-75
2021/09/19 01:32:41;;;;;;;30.03;26.93;;;;;;;9.83;100.00;98684.13;2049511;29;20297;-75
2021/09/19 01:33:42;;;;;;;28.58;25.70;;;;;;;9.82;100.00;98672.69;2049582;28;20285;-75
2021/09/19 01:34:43;;;;;;;30.23;27.03;;;;;;;9.81;100.00;98675.63;2049630;29;20697;-76
2021/09/19 01:35:44;;;;;;;28.50;25.75;;;;;;;9.82;100.00;98677.22;2049488;29;20234;-76
2021/09/19 01:36:46;;;;;;;28.97;25.97;;;;;;;9.86;100.00;98678.97;2049635;28;20653;-76
2021/09/19 01:37:46;;;;;;;30.55;27.35;;;;;;;9.82;100.00;98677.22;2058335;28;20205;-76
2021/09/19 01:38:48;;;;;;;33.00;26.83;;;;;;;9.77;100.00;98674.66;2049498;29;20206;-76
2021/09/19 01:39:52;;;;;;;29.92;26.67;;;;;;;9.76;100.00;98678.41;2041589;29;20233;-76
2021/09/19 01:40:56;;;;;;;29.33;26.33;;;;;;;9.84;100.00;98677.72;2048847;29;20237;-76
2021/09/19 01:41:56;;;;;;;32.20;27.40;;;;;;;9.76;100.00;98673.88;2041813;29;20214;-76
2021/09/19 01:42:59;;;;;;;29.83;26.43;;;;;;;9.71;100.00;98676.63;2049522;29;20189;-76
2021/09/19 01:44:00;;;;;;;30.40;26.48;;;;;;;9.68;100.00;98676.47;2058029;28;20204;-76
2021/09/19 01:45:02;;;;;;;30.08;27.17;;;;;;;9.75;100.00;98698.94;2049387;29;20194;-76
2021/09/19 01:46:04;;;;;;;27.75;25.13;;;;;;;9.80;100.00;98690.81;2049581;28;20197;-76
2021/09/19 01:47:05;;;;;;;29.90;26.90;;;;;;;9.79;100.00;98685.81;2057989;28;20645;-76
2021/09/19 01:48:06;;;;;;;29.75;26.85;;;;;;;9.74;100.00;98676.06;2058051;28;20558;-76
2021/09/19 01:49:08;;;;;;;29.50;26.67;;;;;;;9.70;100.00;98691.03;2049067;29;20202;-76
2021/09/19 01:50:10;;;;;;;29.00;26.08;;;;;;;9.67;100.00;98685.53;2049754;28;20194;-76
2021/09/19 01:51:13;;;;;;;29.52;26.60;;;;;;;9.62;100.00;98681.88;2058198;28;20185;-76
2021/09/19 01:52:14;;;;;;;29.38;26.40;;;;;;;9.72;100.00;98699.53;2058098;28;20240;-77
2021/09/19 01:53:16;;;;;;;28.63;25.63;;;;;;;9.74;100.00;98691.25;2058020;28;20232;-76
2021/09/19 01:54:16;;;;;;;27.23;24.60;;;;;;;9.66;100.00;98686.63;2057975;28;20194;-76
2021/09/19 01:55:20;;;;;;;28.90;26.23;;;;;;;9.66;100.00;98694.63;2057988;28;20194;-76
2021/09/19 01:56:21;;;;;;;28.20;25.30;;;;;;;9.65;100.00;98703.69;2049321;29;20712;-76
2021/09/19 01:57:23;;;;;;;26.92;24.42;;;;;;;9.69;100.00;98700.13;2049711;28;20237;-76
2021/09/19 01:58:24;;;;;;;28.75;25.95;;;;;;;9.66;100.00;98697.28;2057904;28;20244;-76
2021/09/19 01:59:26;;;;;;;27.38;24.67;;;;;;;9.66;100.00;98702.63;2057767;28;20739;-76
2021/09/19 02:00:26;;;;;;;26.15;23.75;;;;;;;9.73;100.00;98703.78;2058046;28;20201;-76
2021/09/19 02:01:30;;;;;;;26.33;24.10;;;;;;;9.67;100.00;98702.31;2058088;28;20268;-76
2021/09/19 02:02:33;;;;;;;26.23;23.83;;;;;;;9.63;100.00;98699.44;2057984;28;20284;-76
2021/09/19 02:03:37;;;;;;;25.48;23.08;;;;;;;9.60;100.00;98696.59;2057971;28;20225;-76
2021/09/19 02:04:39;;;;;;;25.35;22.95;;;;;;;9.58;100.00;98702.22;2058043;28;20706;-76
2021/09/19 02:05:41;;;;;;;24.63;22.42;;;;;;;9.61;100.00;98693.63;2058095;28;20189;-76
2021/09/19 02:06:41;;;;;;;25.25;22.90;;;;;;;9.65;100.00;98696.50;2049282;29;20202;-76
2021/09/19 02:07:43;;;;;;;24.40;22.20;;;;;;;9.65;100.00;98711.69;2049337;29;20190;-76
2021/09/19 02:08:44;;;;;;;24.15;21.80;;;;;;;9.68;100.00;98701.22;2049403;28;20226;-76
2021/09/19 02:09:46;;;;;;;24.73;22.63;;;;;;;9.60;100.00;98699.25;2057957;28;20186;-76
2021/09/19 02:10:47;;;;;;;24.15;22.10;;;;;;;9.57;100.00;98692.66;2049198;29;20316;-76
2021/09/19 02:11:49;;;;;;;24.45;22.38;;;;;;;9.49;100.00;98696.03;2049460;28;20637;-76
2021/09/19 02:12:50;;;;;;;24.45;22.25;;;;;;;9.52;100.00;98692.75;2048659;28;20687;-76
2021/09/19 02:13:52;;;;;;;24.07;21.97;;;;;;;9.49;100.00;98701.34;2049231;29;20203;-76
2021/09/19 02:14:53;;;;;;;24.25;22.20;;;;;;;9.45;100.00;98686.25;2049561;28;20672;-76
2021/09/19 02:15:55;;;;;;;23.87;21.77;;;;;;;9.45;100.00;98699.56;2057918;28;20606;-76
2021/09/19 02:16:55;;;;;;;23.05;21.17;;;;;;;9.41;100.00;98688.72;2057941;28;20695;-76
2021/09/19 02:17:57;;;;;;;23.90;21.90;;;;;;;9.37;100.00;98687.72;2057977;28;20190;-76
2021/09/19 02:18:58;;;;;;;23.50;21.33;;;;;;;9.39;100.00;98682.91;2049226;29;20221;-76
2021/09/19 02:20:01;;;;;;;24.17;21.87;;;;;;;9.42;100.00;98690.28;2049342;29;20190;-76
2021/09/19 02:21:04;;;;;;;24.30;22.10;;;;;;;9.38;100.00;98689.28;2058072;28;20178;-76
2021/09/19 02:22:07;;;;;;;24.30;22.05;;;;;;;9.42;100.00;98689.50;2057845;28;20186;-76
2021/09/19 02:23:07;;;;;;;23.88;21.63;;;;;;;9.36;100.00;98688.81;2058052;28;20201;-76
2021/09/19 02:24:09;;;;;;;24.77;22.27;;;;;;;9.33;100.00;98697.41;2057867;28;20193;-77
2021/09/19 02:25:10;;;;;;;24.10;21.98;;;;;;;9.39;100.00;98690.91;2058054;28;20280;-76
2021/09/19 02:26:13;;;;;;;25.08;22.48;;;;;;;9.39;100.00;98690.91;2057919;28;20648;-76
2021/09/19 02:27:15;;;;;;;25.65;23.45;;;;;;;9.34;100.00;98693.66;2049248;29;20233;-76
2021/09/19 02:28:19;;;;;;;24.35;22.25;;;;;;;9.36;100.00;98686.16;2049483;28;20586;-76
2021/09/19 02:29:21;;;;;;;24.88;22.55;;;;;;;9.37;100.00;98686.94;2057941;28;20213;-76
2021/09/19 02:30:22;;;;;;;24.55;22.17;;;;;;;9.31;100.00;98683.59;2057741;28;20225;-76
2021/09/19 02:31:23;;;;;;;24.85;22.52;;;;;;;9.26;100.00;98691.69;2057814;28;20613;-76
2021/09/19 02:32:24;;;;;;;23.67;21.63;;;;;;;9.28;100.00;98684.19;2057793;28;20189;-76
2021/09/19 02:33:28;;;;;;;24.65;22.30;;;;;;;9.25;100.00;98690.91;2057767;28;20232;-76
2021/09/19 02:34:30;;;;;;;24.35;21.95;;;;;;;9.24;100.00;98685.88;2057796;28;20189;-77
2021/09/19 02:35:31;;;;;;;24.40;22.13;;;;;;;9.24;100.00;98685.88;2057786;28;20236;-76
2021/09/19 02:36:33;;;;;;;23.80;21.53;;;;;;;9.23;100.00;98685.09;2057974;28;20212;-76
2021/09/19 02:37:35;;;;;;;23.80;21.60;;;;;;;9.23;100.00;98687.75;2057822;28;20683;-76
2021/09/19 02:38:37;;;;;;;24.58;22.17;;;;;;;9.18;100.00;98685.16;2049135;29;20574;-76
2021/09/19 02:39:37;;;;;;;24.50;22.17;;;;;;;9.20;100.00;98692.84;2049280;28;20194;-76
2021/09/19 02:40:41;;;;;;;25.63;22.93;;;;;;;9.30;100.00;98698.78;2057722;28;20188;-76
2021/09/19 02:41:43;;;;;;;25.05;22.95;;;;;;;9.30;100.00;98693.47;2049266;29;20206;-76
2021/09/19 02:42:47;;;;;;;25.38;22.42;;;;;;;9.30;100.00;98698.78;2049272;28;20608;-76
2021/09/19 02:43:47;;;;;;;24.42;22.15;;;;;;;9.27;100.00;98695.91;2049147;29;20610;-76
2021/09/19 02:44:49;;;;;;;25.37;22.37;;;;;;;9.21;100.00;98697.09;2049300;29;20273;-76
2021/09/19 02:45:51;;;;;;;23.35;21.33;;;;;;;9.24;100.00;98702.63;2049094;29;20301;-77
2021/09/19 02:46:53;;;;;;;24.77;22.60;;;;;;;9.21;100.00;98697.09;2041356;29;20199;-76
2021/09/19 02:47:53;;;;;;;25.35;23.00;;;;;;;9.21;100.00;98699.75;2041267;29;20790;-76
2021/09/19 02:48:57;;;;;;;25.27;23.00;;;;;;;9.28;100.00;98695.63;2049090;29;20232;-76
2021/09/19 02:49:59;;;;;;;25.00;22.70;;;;;;;9.29;100.00;98691.88;2049559;28;20191;-76
2021/09/19 02:51:02;;;;;;;25.25;22.92;;;;;;;9.24;100.00;98699.19;2057683;28;20217;-76
2021/09/19 02:52:03;;;;;;;24.00;22.00;;;;;;;9.23;100.00;98702.94;2049055;29;20320;-76
2021/09/19 02:53:05;;;;;;;25.13;22.92;;;;;;;9.27;100.00;98699.38;2049294;28;20190;-76
2021/09/19 02:54:05;;;;;;;24.77;22.33;;;;;;;9.21;100.00;98700.56;2057745;28;20286;-75
2021/09/19 02:55:09;;;;;;;26.30;23.53;;;;;;;9.21;100.00;98697.09;2057947;28;20194;-76
2021/09/19 02:56:11;;;;;;;25.65;23.15;;;;;;;9.23;100.00;98705.59;2049079;29;20285;-76
2021/09/19 02:57:14;;;;;;;25.88;23.35;;;;;;;9.22;100.00;98701.34;2049477;28;20206;-76
2021/09/19 02:58:15;;;;;;;24.75;22.33;;;;;;;9.20;100.00;98693.63;2057855;28;20217;-76
2021/09/19 02:59:18;;;;;;;25.13;22.50;;;;;;;9.22;100.00;98696.03;2057609;28;20320;-76
2021/09/19 03:00:21;;;;;;;24.50;22.38;;;;;;;9.23;100.00;98710.91;2057675;28;20248;-76
2021/09/19 03:01:22;;;;;;;25.70;23.42;;;;;;;9.22;100.00;98702.16;2057705;28;20187;-76
2021/09/19 03:02:23;;;;;;;25.13;22.88;;;;;;;9.16;100.00;98697.19;2048679;29;20210;-76
2021/09/19 03:03:25;;;;;;;26.00;23.60;;;;;;;9.18;100.00;98708.34;2049063;29;20198;-76
2021/09/19 03:04:26;;;;;;;26.33;23.88;;;;;;;9.12;100.00;98697.00;2049234;28;20278;-76
2021/09/19 03:05:27;;;;;;;24.87;22.53;;;;;;;9.12;100.00;98697.00;2057699;28;20200;-76
2021/09/19 03:06:28;;;;;;;25.83;23.20;;;;;;;9.06;100.00;98700.84;2057697;28;20204;-76
2021/09/19 03:07:30;;;;;;;25.47;22.97;;;;;;;9.09;100.00;98702.13;2049023;29;20198;-76
2021/09/19 03:08:30;;;;;;;26.35;23.85;;;;;;;9.12;100.00;98701.53;2049139;28;20770;-76
2021/09/19 03:09:32;;;;;;;26.70;24.20;;;;;;;9.06;100.00;98701.63;2049046;29;20667;-76
2021/09/19 03:10:33;;;;;;;27.73;24.75;;;;;;;9.07;100.00;98705.09;2049095;28;20202;-76
2021/09/19 03:11:35;;;;;;;25.67;23.13;;;;;;;9.13;100.00;98703.13;2057808;28;20225;-77
2021/09/19 03:12:37;;;;;;;26.63;23.60;;;;;;;9.10;100.00;98709.03;2057879;28;20190;-76
2021/09/19 03:13:38;;;;;;;26.13;23.17;;;;;;;9.06;100.00;98703.50;2048648;29;20261;-76
2021/09/19 03:14:39;;;;;;;26.15;23.40;;;;;;;9.02;100.00;98702.50;2048994;29;20213;-76
2021/09/19 03:15:40;;;;;;;24.30;22.00;;;;;;;9.00;100.00;98712.66;2049194;29;20281;-76
2021/09/19 03:16:43;;;;;;;24.70;22.50;;;;;;;8.99;100.00;98703.88;2057883;28;20190;-76
2021/09/19 03:17:45;;;;;;;24.50;22.27;;;;;;;9.01;100.00;98707.03;2057622;28;20186;-76
2021/09/19 03:18:46;;;;;;;24.30;22.20;;;;;;;9.02;100.00;98705.16;2057654;28;20603;-77
2021/09/19 03:19:48;;;;;;;24.53;22.13;;;;;;;9.01;100.00;98712.34;2057732;28;20190;-76
2021/09/19 03:20:48;;;;;;;24.67;22.25;;;;;;;8.98;100.00;98702.31;2048946;29;20341;-76
2021/09/19 03:21:50;;;;;;;24.67;22.07;;;;;;;8.99;100.00;98703.09;2048986;29;20207;-76
2021/09/19 03:22:51;;;;;;;24.13;22.02;;;;;;;8.97;100.00;98706.06;2049205;29;20273;-76
2021/09/19 03:23:53;;;;;;;23.00;20.90;;;;;;;8.98;100.00;98701.53;2057921;28;20190;-76
2021/09/19 03:24:55;;;;;;;24.60;22.52;;;;;;;8.93;100.00;98705.06;2050429;29;20276;-76
2021/09/19 03:25:59;;;;;;;24.20;22.10;;;;;;;8.91;100.00;98712.53;2050443;29;20202;-76
2021/09/19 03:26:59;;;;;;;23.48;21.38;;;;;;;8.94;100.00;98705.84;2050786;28;20222;-77
2021/09/19 03:28:03;;;;;;;24.27;21.93;;;;;;;8.92;100.00;98698.16;2050053;29;20198;-76
2021/09/19 03:29:03;;;;;;;23.23;21.13;;;;;;;8.88;100.00;98712.34;2050754;28;20269;-76
2021/09/19 03:30:08;;;;;;;22.13;20.33;;;;;;;8.90;100.00;98705.66;2059071;28;20344;-76
2021/09/19 03:31:10;;;;;;;23.13;21.13;;;;;;;8.97;100.00;98708.72;2050365;29;20700;-76
2021/09/19 03:32:11;;;;;;;23.40;21.40;;;;;;;8.94;100.00;98711.94;2050381;29;20202;-76
2021/09/19 03:33:12;;;;;;;23.25;21.10;;;;;;;8.98;100.00;98707.63;2050617;28;20201;-76
2021/09/19 03:34:14;;;;;;;23.20;21.10;;;;;;;8.96;100.00;98709.81;2050061;29;20198;-76
2021/09/19 03:35:14;;;;;;;22.67;20.67;;;;;;;8.93;100.00;98715.69;2050530;28;20680;-76
2021/09/19 03:36:16;;;;;;;22.63;20.70;;;;;;;8.89;100.00;98704.06;2059037;28;20620;-76
2021/09/19 03:37:17;;;;;;;23.02;21.02;;;;;;;8.91;100.00;98707.22;2059033;28;20285;-76
2021/09/19 03:38:19;;;;;;;24.05;21.75;;;;;;;8.89;100.00;98709.41;2059089;28;20196;-76
2021/09/19 03:39:20;;;;;;;23.17;21.10;;;;;;;8.82;100.00;98708.97;2059017;28;20561;-77
2021/09/19 03:40:21;;;;;;;22.33;20.33;;;;;;;8.88;100.00;98712.34;2050017;29;20293;-76
2021/09/19 03:41:23;;;;;;;23.27;21.15;;;;;;;8.83;100.00;98704.44;2050313;29;20237;-76
2021/09/19 03:42:24;;;;;;;22.75;20.95;;;;;;;8.87;100.00;98706.25;2042113;29;20305;-76
2021/09/19 03:43:27;;;;;;;23.17;20.90;;;;;;;8.88;100.00;98710.47;2050578;29;20202;-76
2021/09/19 03:44:27;;;;;;;23.58;21.30;;;;;;;8.80;100.00;98715.69;2050286;29;20339;-77
2021/09/19 03:45:31;;;;;;;22.83;20.83;;;;;;;8.82;100.00;98708.19;2050649;29;20194;-76
2021/09/19 03:46:32;;;;;;;22.73;20.70;;;;;;;8.80;100.00;98718.34;2049456;29;20711;-76
2021/09/19 03:47:34;;;;;;;23.43;21.30;;;;;;;8.82;100.00;98719.63;2050371;29;20594;-77
2021/09/19 03:48:35;;;;;;;23.15;21.00;;;;;;;8.73;100.00;98718.72;2059193;28;20189;-76
2021/09/19 03:49:36;;;;;;;24.03;21.60;;;;;;;8.78;100.00;98710.66;2059000;28;20228;-76
2021/09/19 03:50:39;;;;;;;24.23;21.92;;;;;;;8.77;100.00;98717.84;2058910;28;20688;-76
2021/09/19 03:51:40;;;;;;;24.50;22.30;;;;;;;8.77;100.00;98722.34;2058916;28;20560;-76
2021/09/19 03:52:42;;;;;;;23.52;21.45;;;;;;;8.75;100.00;98717.34;2059045;28;20186;-77
2021/09/19 03:53:44;;;;;;;24.42;22.23;;;;;;;8.73;100.00;98730.16;2058886;28;20197;-77
2021/09/19 03:54:45;;;;;;;24.67;22.48;;;;;;;8.70;100.00;98716.66;2058892;28;20560;-76
2021/09/19 03:55:46;;;;;;;24.40;22.13;;;;;;;8.67;100.00;98717.22;2049910;29;20301;-76
2021/09/19 03:56:47;;;;;;;24.35;21.95;;;;;;;8.73;100.00;98716.06;2050313;29;20233;-76
2021/09/19 03:57:50;;;;;;;24.47;22.27;;;;;;;8.73;100.00;98718.72;2050317;29;20186;-76
2021/09/19 03:58:53;;;;;;;24.85;22.77;;;;;;;8.67;100.00;98717.22;2049553;29;20206;-77
2021/09/19 03:59:54;;;;;;;25.48;23.17;;;;;;;8.65;100.00;98714.84;2050513;28;20235;-76
2021/09/19 04:00:55;;;;;;;25.83;23.33;;;;;;;8.63;100.00;98725.00;2050226;29;20209;-76
2021/09/19 04:01:57;;;;;;;25.97;23.77;;;;;;;8.61;100.00;98723.72;2042269;29;20207;-76
2021/09/19 04:02:57;;;;;;;25.08;22.77;;;;;;;8.57;100.00;98725.34;2042377;29;20214;-76
2021/09/19 04:03:59;;;;;;;25.43;23.03;;;;;;;8.55;100.00;98715.03;2050486;29;20701;-76
2021/09/19 04:05:02;;;;;;;25.52;23.02;;;;;;;8.57;100.00;98717.38;2049893;29;20297;-76
2021/09/19 04:06:07;;;;;;;26.58;23.77;;;;;;;8.57;100.00;98730.69;2042468;29;20198;-77
2021/09/19 04:07:09;;;;;;;25.27;22.98;;;;;;;8.56;100.00;98727.22;2051243;28;20210;-76
2021/09/19 04:08:11;;;;;;;26.00;23.40;;;;;;;8.55;100.00;98730.19;2049694;29;20201;-76
2021/09/19 04:09:11;;;;;;;26.23;23.63;;;;;;;8.54;100.00;98729.41;2050243;28;20285;-76
2021/09/19 04:10:13;;;;;;;27.13;24.20;;;;;;;8.56;100.00;98724.56;2058877;28;20198;-77
2021/09/19 04:11:14;;;;;;;26.52;24.10;;;;;;;8.58;100.00;98730.38;2050082;29;20827;-76
2021/09/19 04:12:17;;;;;;;26.87;24.10;;;;;;;8.55;100.00;98724.88;2050273;28;20567;-76
2021/09/19 04:13:18;;;;;;;27.33;23.55;;;;;;;8.56;100.00;98731.75;2058754;28;20194;-77
2021/09/19 04:14:21;;;;;;;27.33;24.43;;;;;;;8.52;100.00;98728.91;2050086;29;20289;-77
2021/09/19 04:15:22;;;;;;;26.40;23.98;;;;;;;8.50;100.00;98739.81;2050575;28;20203;-77
2021/09/19 04:16:24;;;;;;;26.30;23.80;;;;;;;8.54;100.00;98736.59;2050101;29;20688;-77
2021/09/19 04:17:24;;;;;;;25.58;23.10;;;;;;;8.53;100.00;98738.47;2050240;28;20202;-76
2021/09/19 04:18:26;;;;;;;26.20;23.60;;;;;;;8.54;100.00;98740.03;2050116;29;20198;-76
2021/09/19 04:19:27;;;;;;;25.92;23.50;;;;;;;8.57;100.00;98743.97;2050379;28;20228;-77
2021/09/19 04:20:34;;;;;;;25.48;23.00;;;;;;;8.52;100.00;98741.41;2058748;28;20205;-76
2021/09/19 04:21:34;;;;;;;25.58;23.10;;;;;;;8.51;100.00;98743.25;2059001;28;20595;-76
2021/09/19 04:22:36;;;;;;;26.77;23.90;;;;;;;8.52;100.00;98754.72;2049787;29;20206;-77
2021/09/19 04:23:36;;;;;;;25.45;22.85;;;;;;;8.47;100.00;98739.59;2050218;28;20202;-77
2021/09/19 04:24:38;;;;;;;27.23;24.47;;;;;;;8.44;100.00;98741.00;2058707;28;20209;-77
2021/09/19 04:25:40;;;;;;;25.45;23.05;;;;;;;8.46;100.00;98740.69;2049982;29;20229;-76
2021/09/19 04:26:42;;;;;;;26.27;23.67;;;;;;;8.41;100.00;98741.53;2042236;29;20199;-76
2021/09/19 04:27:43;;;;;;;26.10;23.55;;;;;;;8.42;100.00;98745.00;2050442;28;20249;-77
2021/09/19 04:28:45;;;;;;;26.03;23.33;;;;;;;8.45;100.00;98750.53;2058942;28;20190;-76
2021/09/19 04:29:48;;;;;;;26.83;24.15;;;;;;;8.47;100.00;98750.25;2050019;29;20744;-76
2021/09/19 04:30:48;;;;;;;25.92;23.48;;;;;;;8.49;100.00;98751.53;2050363;28;20186;-77
2021/09/19 04:31:50;;;;;;;26.93;24.33;;;;;;;8.56;100.00;98742.41;2058648;28;20308;-76
2021/09/19 04:32:51;;;;;;;26.63;24.17;;;;;;;8.56;100.00;98753.81;2058625;28;20205;-77
2021/09/19 04:33:55;;;;;;;28.77;25.93;;;;;;;8.53;100.00;98748.31;2049996;29;20230;-76
2021/09/19 04:34:56;;;;;;;27.48;24.60;;;;;;;8.49;100.00;98748.06;2050519;28;20214;-76
2021/09/19 04:35:58;;;;;;;28.50;25.60;;;;;;;8.50;100.00;98749.66;2049397;28;20683;-76
2021/09/19 04:36:58;;;;;;;29.02;25.88;;;;;;;8.45;100.00;98745.22;2050124;28;20198;-76
2021/09/19 04:38:00;;;;;;;28.80;25.80;;;;;;;8.43;100.00;98754.56;2058550;28;20198;-76
2021/09/19 04:39:01;;;;;;;28.58;25.50;;;;;;;8.38;100.00;98752.78;2058584;28;20218;-76
2021/09/19 04:40:04;;;;;;;29.60;26.60;;;;;;;8.40;100.00;98749.81;2058662;28;20197;-76
2021/09/19 04:41:06;;;;;;;28.75;25.45;;;;;;;8.37;100.00;98758.38;2058546;28;20650;-76
2021/09/19 04:42:06;;;;;;;29.02;26.02;;;;;;;8.40;100.00;98749.81;2058552;28;20645;-77
2021/09/19 04:43:11;;;;;;;28.40;25.13;;;;;;;8.32;100.00;98753.88;2049474;29;20703;-76